createdAt,value
2018-04-10T00:01:16.067Z,16.77
2018-04-10T00:03:58.238Z,18.93
2018-04-10T00:06:39.824Z,18.27
2018-04-10T00:09:21.940Z,18.40
2018-04-10T00:12:03.423Z,18.60
2018-04-10T00:14:31.606Z,20.70
2018-04-10T00:17:12.405Z,20.70
2018-04-10T00:19:53.139Z,19.77
2018-04-10T00:22:35.193Z,20.63
2018-04-10T00:25:03.377Z,16.75
2018-04-10T00:27:44.673Z,18.30
2018-04-10T00:30:12.801Z,17.60
2018-04-10T00:32:54.667Z,16.47
2018-04-10T00:35:22.864Z,19.30
2018-04-10T00:37:51.622Z,20.20
2018-04-10T00:40:32.584Z,18.63
2018-04-10T00:43:00.698Z,18.03
2018-04-10T00:45:43.400Z,18.20
2018-04-10T00:48:11.532Z,16.55
2018-04-10T00:50:53.196Z,19.43
2018-04-10T00:53:37.150Z,19.13
2018-04-10T00:56:17.796Z,18.17
2018-04-10T00:58:59.482Z,19.47
2018-04-10T01:01:27.693Z,18.83
2018-04-10T01:04:09.159Z,19.50
2018-04-10T01:06:50.677Z,17.57
2018-04-10T01:09:32.269Z,18.93
2018-04-10T01:12:14.392Z,18.73
2018-04-10T01:14:55.884Z,17.10
2018-04-10T01:17:37.388Z,16.52
2018-04-10T01:20:18.977Z,18.43
2018-04-10T01:23:00.702Z,18.23
2018-04-10T01:25:41.985Z,18.00
2018-04-10T01:28:23.493Z,17.20
2018-04-10T01:30:51.652Z,16.73
2018-04-10T01:33:33.098Z,16.80
2018-04-10T01:36:15.073Z,17.67
2018-04-10T01:38:55.879Z,21.00
2018-04-10T01:41:36.756Z,19.50
2018-04-10T01:44:18.376Z,17.17
2018-04-10T01:47:00.254Z,17.73
2018-04-10T01:49:41.769Z,19.40
2018-04-10T01:52:23.876Z,18.60
2018-04-10T01:55:07.015Z,19.53
2018-04-10T01:57:48.928Z,17.77
2018-04-10T02:00:30.708Z,18.90
2018-04-10T02:03:12.015Z,16.30
2018-04-10T02:05:53.648Z,19.47
2018-04-10T02:08:34.630Z,16.20
2018-04-10T02:22:51.406Z,17.73
2018-04-10T02:25:33.548Z,16.00
2018-04-10T02:28:15.033Z,14.80
2018-04-10T02:30:43.412Z,14.20
2018-04-10T02:33:24.716Z,17.77
2018-04-10T02:35:52.947Z,16.70
2018-04-10T02:38:34.531Z,16.77
2018-04-10T02:41:02.965Z,15.40
2018-04-10T02:43:44.296Z,15.23
2018-04-10T02:46:12.584Z,14.77
2018-04-10T02:48:54.191Z,15.05
2018-04-10T02:51:36.296Z,15.33
2018-04-10T02:54:17.680Z,12.63
2018-04-10T02:56:45.919Z,14.27
2018-04-10T02:59:27.116Z,13.50
2018-04-10T03:02:08.774Z,13.80
2018-04-10T03:04:37.132Z,14.37
2018-04-10T03:07:18.552Z,14.00
2018-04-10T03:09:46.890Z,15.10
2018-04-10T03:12:28.456Z,14.20
2018-04-10T03:14:56.832Z,14.03
2018-04-10T03:17:38.144Z,13.03
2018-04-10T03:20:06.504Z,14.20
2018-04-10T03:22:47.926Z,11.90
2018-04-10T03:25:16.196Z,14.20
2018-04-10T03:27:57.922Z,13.73
2018-04-10T03:30:26.268Z,13.40
2018-04-10T03:33:08.533Z,12.80
2018-04-10T03:35:36.902Z,13.87
2018-04-10T03:38:17.836Z,11.45
2018-04-10T03:40:58.799Z,13.10
2018-04-10T03:43:40.169Z,14.30
2018-04-10T03:46:22.206Z,11.65
2018-04-10T03:49:03.192Z,14.00
2018-04-10T03:51:44.679Z,14.33
2018-04-10T03:54:12.925Z,12.00
2018-04-10T03:56:55.158Z,13.83
2018-04-10T03:59:36.564Z,16.53
2018-04-10T04:02:04.801Z,14.73
2018-04-10T04:04:33.010Z,15.00
2018-04-10T04:07:01.197Z,12.85
2018-04-10T04:09:43.226Z,14.33
2018-04-10T04:12:25.226Z,14.50
2018-04-10T04:15:06.838Z,14.63
2018-04-10T04:17:48.519Z,13.37
2018-04-10T04:20:29.845Z,13.60
2018-04-10T04:23:11.225Z,14.33
2018-04-10T04:25:39.427Z,14.77
2018-04-10T04:28:21.021Z,14.90
2018-04-10T04:31:02.935Z,13.80
2018-04-10T04:33:44.428Z,14.07
2018-04-10T04:36:25.922Z,13.58
2018-04-10T04:39:07.198Z,13.05
2018-04-10T04:41:49.234Z,14.73
2018-04-10T04:44:30.035Z,15.40
2018-04-10T04:47:10.833Z,12.90
2018-04-10T04:49:52.909Z,13.10
2018-04-10T04:52:34.932Z,12.85
2018-04-10T04:55:17.136Z,14.28
2018-04-10T04:57:45.321Z,16.20
2018-04-10T05:00:27.532Z,16.37
2018-04-10T05:03:09.182Z,14.18
2018-04-10T05:05:49.946Z,15.80
2018-04-10T05:08:32.048Z,16.77
2018-04-10T05:11:13.542Z,16.50
2018-04-10T05:13:54.887Z,16.43
2018-04-10T05:16:23.155Z,15.23
2018-04-10T05:19:05.347Z,14.60
2018-04-10T05:21:47.690Z,19.03
2018-04-10T05:24:15.845Z,20.10
2018-04-10T05:30:23.721Z,20.13
2018-04-10T05:33:04.986Z,19.23
2018-04-10T05:35:47.222Z,20.37
2018-04-10T05:38:29.332Z,18.40
2018-04-10T05:40:57.474Z,18.70
2018-04-10T05:43:39.112Z,19.30
2018-04-10T05:46:20.005Z,18.90
2018-04-10T05:49:01.791Z,19.43
2018-04-10T05:51:43.432Z,20.77
2018-04-10T05:54:24.304Z,17.60
2018-04-10T05:56:52.435Z,16.37
2018-04-10T05:59:35.122Z,18.27
2018-04-10T06:02:16.616Z,17.48
2018-04-10T06:04:58.022Z,18.63
2018-04-10T06:07:26.181Z,19.37
2018-04-10T06:10:08.393Z,17.90
2018-04-10T06:12:49.333Z,19.13
2018-04-10T06:15:17.566Z,18.27
2018-04-10T06:17:45.699Z,17.80
2018-04-10T06:20:27.787Z,16.63
2018-04-10T06:22:55.899Z,17.20
2018-04-10T06:25:24.033Z,15.53
2018-04-10T06:27:52.171Z,16.07
2018-04-10T06:30:20.299Z,15.07
2018-04-10T06:33:01.557Z,13.97
2018-04-10T06:35:29.766Z,14.57
2018-04-10T06:38:12.125Z,15.07
2018-04-10T06:40:53.473Z,15.00
2018-04-10T06:43:34.328Z,14.87
2018-04-10T06:46:15.198Z,15.70
2018-04-10T06:48:56.041Z,15.90
2018-04-10T06:51:37.265Z,13.73
2018-04-10T06:54:17.938Z,15.77
2018-04-10T06:56:59.218Z,15.23
2018-04-10T06:59:27.393Z,14.53
2018-04-10T07:02:09.683Z,16.93
2018-04-10T07:04:38.018Z,15.00
2018-04-10T07:07:19.188Z,15.03
2018-04-10T07:09:47.349Z,13.03
2018-04-10T07:12:29.512Z,14.77
2018-04-10T07:15:11.677Z,13.67
2018-04-10T07:17:39.826Z,14.97
2018-04-10T07:20:21.282Z,13.50
2018-04-10T07:23:02.602Z,14.73
2018-04-10T07:25:30.848Z,14.37
2018-04-10T07:28:13.020Z,14.50
2018-04-10T07:30:54.251Z,13.97
2018-04-10T07:33:35.808Z,14.87
2018-04-10T07:36:03.953Z,12.82
2018-04-10T07:38:32.211Z,14.03
2018-04-10T07:41:13.239Z,12.60
2018-04-10T07:43:54.879Z,16.03
2018-04-10T07:46:23.027Z,14.77
2018-04-10T07:48:51.204Z,13.67
2018-04-10T07:51:19.493Z,13.97
2018-04-10T07:54:01.144Z,12.82
2018-04-10T07:56:29.331Z,14.40
2018-04-10T07:59:11.297Z,13.97
2018-04-10T08:01:52.858Z,13.60
2018-04-10T08:04:34.337Z,13.88
2018-04-10T08:07:15.768Z,14.53
2018-04-10T08:09:43.936Z,13.72
2018-04-10T08:12:12.062Z,15.07
2018-04-10T08:14:53.310Z,15.60
2018-04-10T08:17:34.168Z,13.70
2018-04-10T08:20:16.300Z,14.40
2018-04-10T08:22:58.398Z,15.37
2018-04-10T08:25:26.569Z,15.67
2018-04-10T08:27:54.700Z,15.20
2018-04-10T08:30:35.358Z,15.20
2018-04-10T08:33:16.129Z,16.40
2018-04-10T08:35:44.307Z,15.17
2018-04-10T08:38:25.621Z,15.40
2018-04-10T08:40:53.799Z,14.30
2018-04-10T08:43:36.218Z,15.13
2018-04-10T08:46:04.414Z,14.27
2018-04-10T08:48:46.520Z,14.20
2018-04-10T08:51:27.920Z,14.60
2018-04-10T08:53:56.163Z,14.00
2018-04-10T08:56:37.496Z,12.83
2018-04-10T08:59:18.298Z,13.30
2018-04-10T09:01:59.107Z,14.23
2018-04-10T09:04:40.695Z,13.37
2018-04-10T09:07:21.465Z,13.67
2018-04-10T09:10:02.337Z,15.20
2018-04-10T09:12:43.259Z,13.70
2018-04-10T09:15:11.498Z,15.53
2018-04-10T09:17:53.936Z,14.53
2018-04-10T09:20:22.218Z,14.37
2018-04-10T09:23:04.141Z,14.50
2018-04-10T09:25:32.276Z,14.20
2018-04-10T09:28:13.229Z,10.90
2018-04-10T09:30:54.493Z,11.87
2018-04-10T09:33:36.616Z,9.63
2018-04-10T09:36:04.746Z,9.33
2018-04-10T09:38:46.406Z,9.23
2018-04-10T09:41:27.996Z,10.20
2018-04-10T09:44:09.944Z,9.40
2018-04-10T09:46:38.067Z,11.83
2018-04-10T09:49:18.871Z,11.90
2018-04-10T09:51:47.056Z,11.93
2018-04-10T09:54:15.192Z,11.03
2018-04-10T09:56:57.062Z,12.20
2018-04-10T09:59:38.216Z,11.90
2018-04-10T10:02:19.765Z,12.20
2018-04-10T10:05:01.718Z,11.22
2018-04-10T10:07:29.936Z,11.80
2018-04-10T10:09:58.124Z,12.50
2018-04-10T10:12:26.263Z,13.80
2018-04-10T10:15:07.567Z,12.00
2018-04-10T10:17:49.221Z,12.70
2018-04-10T10:20:31.172Z,11.48
2018-04-10T10:23:13.127Z,9.83
2018-04-10T10:25:55.293Z,9.73
2018-04-10T10:28:36.907Z,12.13
2018-04-10T10:31:18.365Z,11.67
2018-04-10T10:33:46.488Z,11.17
2018-04-10T10:36:28.349Z,9.97
2018-04-10T10:39:09.924Z,9.00
2018-04-10T10:41:50.736Z,9.30
2018-04-10T10:44:32.671Z,10.40
2018-04-10T10:47:14.935Z,9.40
2018-04-10T10:49:57.159Z,10.27
2018-04-10T10:52:39.386Z,10.20
2018-04-10T10:55:20.829Z,10.00
2018-04-10T10:58:01.731Z,10.20
2018-04-10T11:00:30.135Z,11.30
2018-04-10T11:03:11.767Z,8.73
2018-04-10T11:05:40.240Z,11.03
2018-04-10T11:08:21.653Z,12.07
2018-04-10T11:11:03.403Z,11.80
2018-04-10T11:13:44.873Z,12.00
2018-04-10T11:16:12.961Z,11.00
2018-04-10T11:18:54.601Z,12.40
2018-04-10T11:21:22.712Z,12.70
2018-04-10T11:24:04.687Z,13.50
2018-04-10T11:26:46.705Z,13.53
2018-04-10T11:29:28.672Z,14.50
2018-04-10T11:32:10.307Z,16.23
2018-04-10T11:34:51.691Z,15.03
2018-04-10T11:37:33.468Z,17.13
2018-04-10T11:40:15.605Z,17.60
2018-04-10T11:42:57.132Z,16.43
2018-04-10T11:45:25.260Z,17.03
2018-04-10T11:48:06.213Z,17.77
2018-04-10T11:50:47.929Z,16.80
2018-04-10T11:53:29.261Z,15.20
2018-04-10T11:55:57.392Z,13.68
2018-04-10T11:58:39.418Z,16.20
2018-04-10T12:01:20.731Z,16.00
2018-04-10T12:04:02.051Z,17.97
2018-04-10T12:06:42.950Z,14.37
2018-04-10T12:09:25.154Z,15.43
2018-04-10T12:12:06.717Z,15.37
2018-04-10T12:14:48.861Z,16.83
2018-04-10T12:17:30.294Z,14.98
2018-04-10T12:20:11.115Z,16.30
2018-04-10T12:22:53.218Z,17.73
2018-04-10T12:25:21.345Z,16.40
2018-04-10T12:28:03.500Z,17.23
2018-04-10T12:30:44.353Z,17.37
2018-04-10T12:33:12.537Z,17.43
2018-04-10T12:35:54.752Z,15.65
2018-04-10T12:38:22.871Z,16.83
2018-04-10T12:41:04.629Z,18.43
2018-04-10T12:43:32.764Z,17.27
2018-04-10T12:46:14.528Z,16.40
2018-04-10T12:48:42.650Z,16.33
2018-04-10T12:51:24.279Z,13.37
2018-04-10T12:53:52.609Z,13.53
2018-04-10T12:56:33.952Z,12.03
2018-04-10T12:59:02.101Z,14.63
2018-04-10T13:01:44.421Z,15.30
2018-04-10T13:04:26.067Z,20.63
2018-04-10T13:07:08.081Z,17.00
2018-04-10T13:09:49.418Z,19.30
2018-04-10T13:12:30.614Z,18.03
2018-04-10T13:14:58.781Z,19.67
2018-04-10T13:17:40.506Z,20.40
2018-04-10T13:20:08.716Z,18.40
2018-04-10T13:22:50.699Z,20.83
2018-04-10T13:25:32.652Z,18.20
2018-04-10T13:28:14.791Z,18.63
2018-04-10T13:30:56.448Z,16.60
2018-04-10T13:33:38.453Z,14.53
2018-04-10T13:36:19.227Z,16.70
2018-04-10T13:39:01.323Z,15.37
2018-04-10T13:41:42.015Z,14.90
2018-04-10T13:44:24.030Z,15.70
2018-04-10T13:46:52.339Z,13.60
2018-04-10T13:49:33.611Z,13.60
2018-04-10T13:52:15.085Z,15.73
2018-04-10T13:54:43.240Z,15.10
2018-04-10T13:57:24.888Z,13.83
2018-04-10T13:59:53.005Z,13.87
2018-04-10T14:02:33.908Z,11.43
2018-04-10T14:05:15.266Z,13.20
2018-04-10T14:07:43.404Z,12.05
2018-04-10T14:10:25.352Z,14.20
2018-04-10T14:12:53.526Z,12.10
2018-04-10T14:15:35.487Z,15.17
2018-04-10T14:18:16.931Z,14.20
2018-04-10T14:23:18.622Z,14.10
2018-04-10T14:25:59.422Z,13.22
2018-04-10T14:28:41.593Z,14.37
2018-04-10T14:31:22.426Z,14.90
2018-04-10T14:34:03.860Z,15.43
2018-04-10T14:36:45.810Z,14.70
2018-04-10T14:39:14.023Z,14.17
2018-04-10T14:41:55.446Z,13.37
2018-04-10T14:44:23.600Z,13.03
2018-04-10T14:47:05.336Z,14.40
2018-04-10T14:49:33.482Z,14.60
2018-04-10T14:52:14.340Z,17.40
2018-04-10T14:54:55.939Z,15.50
2018-04-10T14:57:24.096Z,13.93
2018-04-10T15:00:06.149Z,12.90
2018-04-10T15:02:48.099Z,14.13
2018-04-10T15:05:30.069Z,12.77
2018-04-10T15:08:10.799Z,7.93
2018-04-10T15:10:52.858Z,8.03
2018-04-10T15:13:34.408Z,7.67
2018-04-10T15:16:02.578Z,5.47
2018-04-10T15:18:44.077Z,6.20
2018-04-10T15:21:12.274Z,4.80
2018-04-10T15:23:53.195Z,4.77
2018-04-10T15:26:34.750Z,4.93
2018-04-10T15:29:16.785Z,6.60
2018-04-10T15:31:58.258Z,4.40
2018-04-10T15:34:40.335Z,6.90
2018-04-10T15:37:21.893Z,6.13
2018-04-10T15:40:03.972Z,4.45
2018-04-10T15:42:45.395Z,6.33
2018-04-10T15:45:26.120Z,5.60
2018-04-10T15:48:08.279Z,5.33
2018-04-10T15:50:49.837Z,5.40
2018-04-10T15:53:31.391Z,5.00
2018-04-10T15:55:59.509Z,5.30
2018-04-10T15:58:27.674Z,5.37
2018-04-10T16:01:13.229Z,4.77
2018-04-10T16:03:54.639Z,4.12
2018-04-10T16:06:36.602Z,5.03
2018-04-10T16:09:18.174Z,4.60
2018-04-10T16:12:00.153Z,3.90
2018-04-10T16:14:28.270Z,4.27
2018-04-10T16:17:10.314Z,3.80
2018-04-10T16:19:52.445Z,4.40
2018-04-10T16:22:33.798Z,3.90
2018-04-10T16:25:14.590Z,4.60
2018-04-10T16:27:56.321Z,4.30
2018-04-10T16:30:37.682Z,3.90
2018-04-10T16:33:05.884Z,5.47
2018-04-10T16:35:48.094Z,3.70
2018-04-10T16:38:28.971Z,4.83
2018-04-10T16:41:10.314Z,4.00
2018-04-10T16:43:38.561Z,5.80
2018-04-10T16:46:19.836Z,4.90
2018-04-10T16:49:00.711Z,6.60
2018-04-10T16:51:28.870Z,7.12
2018-04-10T16:53:56.999Z,7.50
2018-04-10T16:56:38.572Z,9.30
2018-04-10T16:59:20.639Z,11.50
2018-04-10T17:02:02.076Z,11.25
2018-04-10T17:04:30.212Z,10.50
2018-04-10T17:07:12.314Z,12.10
2018-04-10T17:09:53.928Z,10.40
2018-04-10T17:12:35.913Z,10.70
2018-04-10T17:15:16.653Z,11.10
2018-04-10T17:17:58.838Z,9.27
2018-04-10T17:20:40.381Z,9.80
2018-04-10T17:23:21.121Z,9.40
2018-04-10T17:26:01.921Z,6.35
2018-04-10T17:28:42.652Z,6.17
2018-04-10T17:31:10.764Z,8.30
2018-04-10T17:33:54.846Z,7.45
2018-04-10T17:36:22.952Z,6.10
2018-04-10T17:39:05.156Z,6.50
2018-04-10T17:41:33.276Z,5.90
2018-04-10T17:44:01.393Z,5.80
2018-04-10T17:46:42.830Z,6.57
2018-04-10T17:49:10.957Z,5.17
2018-04-10T17:51:39.081Z,4.40
2018-04-10T17:54:20.654Z,5.00
2018-04-10T17:57:02.174Z,3.90
2018-04-10T17:59:44.248Z,5.47
2018-04-10T18:02:25.060Z,3.70
2018-04-10T18:04:53.184Z,4.00
2018-04-10T18:07:35.506Z,6.27
2018-04-10T18:10:03.725Z,3.50
2018-04-10T18:12:45.839Z,5.20
2018-04-10T18:15:27.978Z,3.47
2018-04-10T18:18:10.002Z,3.83
2018-04-10T18:20:52.184Z,5.13
2018-04-10T18:23:34.393Z,3.50
2018-04-10T18:26:15.410Z,3.57
2018-04-10T18:31:31.685Z,3.57
2018-04-10T18:34:12.906Z,3.25
2018-04-10T18:36:55.906Z,4.70
2018-04-10T18:39:38.068Z,3.80
2018-04-10T18:42:20.236Z,3.42
2018-04-10T18:45:01.758Z,5.13
2018-04-10T18:47:43.987Z,3.02
2018-04-10T18:50:26.003Z,3.30
2018-04-10T18:52:55.511Z,4.17
2018-04-10T18:55:37.662Z,3.30
2018-04-10T18:58:20.624Z,3.00
2018-04-10T19:01:03.423Z,4.30
2018-04-10T19:03:45.028Z,3.00
2018-04-10T19:06:27.167Z,3.60
2018-04-10T19:09:08.583Z,5.03
2018-04-10T19:11:50.450Z,3.92
2018-04-10T19:14:33.305Z,3.45
2018-04-10T19:17:15.267Z,3.30
2018-04-10T19:19:44.805Z,4.80
2018-04-10T19:22:27.604Z,3.30
2018-04-10T19:25:10.403Z,2.90
2018-04-10T19:27:39.782Z,3.70
2018-04-10T19:30:09.298Z,2.40
2018-04-10T19:32:51.486Z,3.12
2018-04-10T19:35:33.021Z,3.37
2018-04-10T19:38:15.939Z,3.73
2018-04-10T19:40:58.714Z,2.90
2018-04-10T19:43:40.916Z,3.20
2018-04-10T19:48:58.708Z,2.80
2018-04-10T19:51:40.272Z,3.10
2018-04-10T19:54:22.673Z,4.07
2018-04-10T19:57:04.293Z,2.90
2018-04-10T19:59:47.162Z,3.02
2018-04-10T20:02:16.677Z,4.60
2018-04-10T20:04:59.129Z,2.60
2018-04-10T20:07:41.961Z,3.10
2018-04-10T20:10:11.532Z,4.80
2018-04-10T20:12:53.778Z,4.10
2018-04-10T20:15:36.097Z,3.95
2018-04-10T20:18:05.470Z,4.70
2018-04-10T20:23:22.312Z,3.40
2018-04-10T20:26:04.434Z,4.10
2018-04-10T20:28:46.691Z,3.37
2018-04-10T20:31:28.729Z,5.27
2018-04-10T20:34:09.958Z,3.70
2018-04-10T20:36:51.220Z,3.42
2018-04-10T20:39:32.991Z,5.30
2018-04-10T20:42:13.803Z,4.20
2018-04-10T20:44:41.947Z,4.85
2018-04-10T20:47:24.581Z,5.70
2018-04-10T20:50:06.126Z,4.50
2018-04-10T20:52:46.895Z,5.17
2018-04-10T20:55:29.083Z,6.67
2018-04-10T20:58:09.911Z,4.80
2018-04-10T21:00:51.857Z,5.12
2018-04-10T21:03:33.915Z,5.77
2018-04-10T21:06:16.141Z,4.10
2018-04-10T21:11:31.384Z,3.90
2018-04-10T21:14:12.148Z,3.80
2018-04-10T21:16:53.552Z,5.23
2018-04-10T21:19:21.749Z,4.10
2018-04-10T21:22:02.616Z,4.50
2018-04-10T21:24:44.338Z,6.07
2018-04-10T21:27:25.932Z,4.80
2018-04-10T21:30:07.571Z,5.08
2018-04-10T21:32:49.146Z,5.70
2018-04-10T21:35:29.924Z,4.17
2018-04-10T21:38:11.932Z,4.20
2018-04-10T21:40:53.203Z,5.40
2018-04-10T21:43:34.519Z,4.60
2018-04-10T21:46:15.793Z,5.30
2018-04-10T21:48:58.024Z,6.03
2018-04-10T21:54:35.464Z,5.25
2018-04-10T21:57:16.736Z,5.40
2018-04-10T21:59:58.850Z,7.10
2018-04-10T22:02:40.988Z,5.10
2018-04-10T22:05:22.406Z,4.92
2018-04-10T22:07:50.550Z,6.00
2018-04-10T22:10:18.729Z,4.97
2018-04-10T22:12:46.926Z,5.40
2018-04-10T22:15:15.103Z,6.37
2018-04-10T22:20:42.945Z,7.00
2018-04-10T22:23:25.049Z,6.33
2018-04-10T22:26:06.447Z,6.80
2018-04-10T22:28:47.832Z,8.90
2018-04-10T22:31:29.556Z,7.47
2018-04-10T22:34:11.361Z,7.00
2018-04-10T22:36:53.029Z,7.97
2018-04-10T22:39:35.256Z,5.80
2018-04-10T22:42:16.138Z,5.58
2018-04-10T22:44:58.135Z,6.90
2018-04-10T22:47:26.391Z,6.47
2018-04-10T22:50:08.336Z,5.50
2018-04-10T22:52:50.465Z,6.90
2018-04-10T22:55:32.560Z,6.28
2018-04-10T22:58:13.867Z,5.50
2018-04-10T23:00:55.967Z,7.47
2018-04-10T23:03:24.159Z,6.50
2018-04-10T23:06:06.185Z,6.62
2018-04-10T23:08:47.482Z,8.80
2018-04-10T23:11:28.767Z,7.70
2018-04-10T23:14:11.107Z,7.67
2018-04-10T23:16:52.593Z,7.13
2018-04-10T23:19:34.215Z,5.15
2018-04-10T23:22:15.192Z,6.92
2018-04-10T23:24:43.380Z,8.50
2018-04-10T23:27:11.562Z,8.00
2018-04-10T23:29:52.978Z,8.40
2018-04-10T23:32:34.321Z,9.20
2018-04-10T23:35:15.979Z,9.25
2018-04-10T23:37:44.134Z,8.95
2018-04-10T23:40:12.332Z,8.83
2018-04-10T23:42:53.659Z,9.15
2018-04-10T23:45:34.324Z,8.90
2018-04-10T23:48:16.546Z,11.07
2018-04-10T23:50:58.156Z,7.85
2018-04-10T23:53:40.575Z,6.75
2018-04-10T23:56:21.857Z,9.37
2018-04-10T23:59:03.359Z,7.60
